createdAt,value
2018-04-26T00:00:22.269Z,25.70
2018-04-26T00:01:22.289Z,26.00
2018-04-26T00:02:22.396Z,26.50
2018-04-26T00:03:22.316Z,26.90
2018-04-26T00:04:22.329Z,26.40
2018-04-26T00:05:22.359Z,27.40
2018-04-26T00:06:22.491Z,28.00
2018-04-26T00:07:22.476Z,28.30
2018-04-26T00:08:22.406Z,27.90
2018-04-26T00:09:22.408Z,27.20
2018-04-26T00:10:22.430Z,27.20
2018-04-26T00:11:22.454Z,28.20
2018-04-26T00:12:22.616Z,28.50
2018-04-26T00:13:22.481Z,29.80
2018-04-26T00:14:22.497Z,31.40
2018-04-26T00:15:22.634Z,30.50
2018-04-26T00:16:22.530Z,33.90
2018-04-26T00:17:22.812Z,39.10
2018-04-26T00:18:22.562Z,38.10
2018-04-26T00:19:22.568Z,37.40
2018-04-26T00:20:22.590Z,37.70
2018-04-26T00:21:22.601Z,36.50
2018-04-26T00:22:22.724Z,36.30
2018-04-26T00:23:22.761Z,37.50
2018-04-26T00:24:22.775Z,37.90
2018-04-26T00:25:22.672Z,37.90
2018-04-26T00:26:22.674Z,38.80
2018-04-26T00:27:22.924Z,39.00
2018-04-26T00:28:22.713Z,40.80
2018-04-26T00:29:22.859Z,40.70
2018-04-26T00:30:22.873Z,40.50
2018-04-26T00:31:22.768Z,40.10
2018-04-26T00:32:22.890Z,38.80
2018-04-26T00:33:22.799Z,39.00
2018-04-26T00:34:23.009Z,40.20
2018-04-26T00:35:22.839Z,42.30
2018-04-26T00:36:22.839Z,45.30
2018-04-26T00:37:23.084Z,41.30
2018-04-26T00:38:23.005Z,44.80
2018-04-26T00:39:23.016Z,46.40
2018-04-26T00:40:22.904Z,44.50
2018-04-26T00:41:23.047Z,45.90
2018-04-26T00:42:23.164Z,46.70
2018-04-26T00:43:22.955Z,44.30
2018-04-26T00:44:22.977Z,43.10
2018-04-26T00:45:23.005Z,45.60
2018-04-26T00:46:23.012Z,43.80
2018-04-26T00:47:23.129Z,44.60
2018-04-26T00:48:23.036Z,47.30
2018-04-26T00:49:23.178Z,48.20
2018-04-26T00:50:23.074Z,48.70
2018-04-26T00:51:23.208Z,49.10
2018-04-26T00:52:23.324Z,49.80
2018-04-26T00:53:23.129Z,51.50
2018-04-26T00:54:23.257Z,52.10
2018-04-26T00:55:23.273Z,55.60
2018-04-26T00:56:23.165Z,56.30
2018-04-26T00:57:23.411Z,53.80
2018-04-26T00:58:23.205Z,49.60
2018-04-26T00:59:23.335Z,52.30
2018-04-26T01:00:23.235Z,55.50
2018-04-26T01:01:23.367Z,60.40
2018-04-26T01:02:23.486Z,57.60
2018-04-26T01:03:23.279Z,57.60
2018-04-26T01:04:23.289Z,57.50
2018-04-26T01:05:23.312Z,58.00
2018-04-26T01:06:23.323Z,57.00
2018-04-26T01:07:23.445Z,57.90
2018-04-26T01:08:23.352Z,58.70
2018-04-26T01:09:23.396Z,60.20
2018-04-26T01:10:23.383Z,63.20
2018-04-26T01:11:23.403Z,61.00
2018-04-26T01:12:23.646Z,62.50
2018-04-26T01:13:23.559Z,62.50
2018-04-26T01:14:23.439Z,62.40
2018-04-26T01:15:23.474Z,66.20
2018-04-26T01:16:23.606Z,68.40
2018-04-26T01:17:23.592Z,68.50
2018-04-26T01:18:23.515Z,68.60
2018-04-26T01:19:23.531Z,69.10
2018-04-26T01:20:23.547Z,69.60
2018-04-26T01:21:23.565Z,68.60
2018-04-26T01:22:23.674Z,64.20
2018-04-26T01:23:23.588Z,69.60
2018-04-26T01:24:23.603Z,75.10
2018-04-26T01:25:23.627Z,76.70
2018-04-26T01:26:23.638Z,75.40
2018-04-26T01:27:23.774Z,73.30
2018-04-26T01:28:23.893Z,72.70
2018-04-26T01:29:23.676Z,73.30
2018-04-26T01:30:23.708Z,75.10
2018-04-26T01:31:23.715Z,74.40
2018-04-26T01:32:23.851Z,78.30
2018-04-26T01:33:23.840Z,79.10
2018-04-26T01:34:23.887Z,76.90
2018-04-26T01:35:23.774Z,79.40
2018-04-26T01:36:23.796Z,80.90
2018-04-26T01:37:23.802Z,83.40
2018-04-26T01:38:23.983Z,75.10
2018-04-26T01:39:23.966Z,75.50
2018-04-26T01:40:23.975Z,74.60
2018-04-26T01:41:23.872Z,67.10
2018-04-26T01:42:23.882Z,65.80
2018-04-26T01:43:24.024Z,64.10
2018-04-26T01:44:24.013Z,67.40
2018-04-26T01:45:23.928Z,67.20
2018-04-26T01:46:23.950Z,70.10
2018-04-26T01:47:23.965Z,73.20
2018-04-26T01:48:24.103Z,73.60
2018-04-26T01:49:24.096Z,69.20
2018-04-26T01:50:24.006Z,70.60
2018-04-26T01:51:24.151Z,76.50
2018-04-26T01:52:24.034Z,78.50
2018-04-26T01:53:24.058Z,78.40
2018-04-26T01:54:24.292Z,73.20
2018-04-26T01:55:24.206Z,68.10
2018-04-26T01:56:24.093Z,70.30
2018-04-26T01:57:24.240Z,71.70
2018-04-26T01:58:24.143Z,70.50
2018-04-26T01:59:24.249Z,69.50
2018-04-26T02:00:24.285Z,69.30
2018-04-26T02:01:24.185Z,70.80
2018-04-26T02:02:24.195Z,70.50
2018-04-26T02:03:24.331Z,71.00
2018-04-26T02:04:24.445Z,72.20
2018-04-26T02:05:24.235Z,70.20
2018-04-26T02:06:24.377Z,69.70
2018-04-26T02:07:24.257Z,71.70
2018-04-26T02:08:24.406Z,71.10
2018-04-26T02:09:24.396Z,72.30
2018-04-26T02:10:24.317Z,72.70
2018-04-26T02:11:24.322Z,74.70
2018-04-26T02:12:24.350Z,75.60
2018-04-26T02:13:24.481Z,72.00
2018-04-26T02:14:24.474Z,70.60
2018-04-26T02:15:24.396Z,72.30
2018-04-26T02:16:24.529Z,70.40
2018-04-26T02:17:24.429Z,71.90
2018-04-26T02:18:24.557Z,73.90
2018-04-26T02:19:24.676Z,71.60
2018-04-26T02:20:24.474Z,71.50
2018-04-26T02:21:24.486Z,73.50
2018-04-26T02:22:24.492Z,74.00
2018-04-26T02:23:24.518Z,75.60
2018-04-26T02:24:24.673Z,76.90
2018-04-26T02:25:24.545Z,73.80
2018-04-26T02:26:24.678Z,75.30
2018-04-26T02:27:24.697Z,71.20
2018-04-26T02:28:24.712Z,72.50
2018-04-26T02:29:24.705Z,72.10
2018-04-26T02:30:24.615Z,73.50
2018-04-26T02:31:24.637Z,76.70
2018-04-26T02:32:24.773Z,73.00
2018-04-26T02:33:24.785Z,74.90
2018-04-26T02:34:24.700Z,73.20
2018-04-26T02:35:24.841Z,73.00
2018-04-26T02:36:24.830Z,71.80
2018-04-26T02:37:24.845Z,71.30
2018-04-26T02:38:24.739Z,72.60
2018-04-26T02:39:24.752Z,70.70
2018-04-26T02:40:24.991Z,72.10
2018-04-26T02:41:24.792Z,71.40
2018-04-26T02:42:24.799Z,72.10
2018-04-26T02:43:24.935Z,72.60
2018-04-26T02:44:24.833Z,73.50
2018-04-26T02:45:25.066Z,71.30
2018-04-26T02:46:24.864Z,69.70
2018-04-26T02:47:24.870Z,71.20
2018-04-26T02:48:24.892Z,74.30
2018-04-26T02:49:25.026Z,71.00
2018-04-26T02:50:24.916Z,70.60
2018-04-26T02:51:25.036Z,70.00
2018-04-26T02:52:24.947Z,72.70
2018-04-26T02:53:25.090Z,71.80
2018-04-26T02:54:25.102Z,71.10
2018-04-26T02:55:25.004Z,72.00
2018-04-26T02:56:25.231Z,73.60
2018-04-26T02:57:25.033Z,72.40
2018-04-26T02:58:25.034Z,72.70
2018-04-26T02:59:25.049Z,71.30
2018-04-26T03:00:25.065Z,70.30
2018-04-26T03:01:25.309Z,72.80
2018-04-26T03:02:25.222Z,71.70
2018-04-26T03:03:25.111Z,71.00
2018-04-26T03:04:25.251Z,73.50
2018-04-26T03:05:25.271Z,71.50
2018-04-26T03:06:25.383Z,73.10
2018-04-26T03:07:25.179Z,78.90
2018-04-26T03:08:25.295Z,77.70
2018-04-26T03:09:25.204Z,72.10
2018-04-26T03:10:25.228Z,75.60
2018-04-26T03:11:25.327Z,76.90
2018-04-26T03:12:25.253Z,83.00
2018-04-26T03:13:25.388Z,91.20
2018-04-26T03:14:25.290Z,92.10
2018-04-26T03:15:25.288Z,96.30
2018-04-26T03:16:25.532Z,91.00
2018-04-26T03:17:25.327Z,95.30
2018-04-26T03:18:25.335Z,90.50
2018-04-26T03:19:25.494Z,92.00
2018-04-26T03:20:25.367Z,87.10
2018-04-26T03:21:25.611Z,87.10
2018-04-26T03:22:25.523Z,90.30
2018-04-26T03:23:25.408Z,88.80
2018-04-26T03:24:25.434Z,89.80
2018-04-26T03:25:25.453Z,84.60
2018-04-26T03:26:25.571Z,84.10
2018-04-26T03:27:25.483Z,83.40
2018-04-26T03:28:25.610Z,81.20
2018-04-26T03:29:25.499Z,83.40
2018-04-26T03:30:25.643Z,79.20
2018-04-26T03:32:25.672Z,87.50
2018-04-26T03:33:25.688Z,83.00
2018-04-26T03:34:25.575Z,81.10
2018-04-26T03:35:25.588Z,81.40
2018-04-26T03:36:25.711Z,91.20
2018-04-26T03:37:25.792Z,86.30
2018-04-26T03:38:25.643Z,92.00
2018-04-26T03:39:25.778Z,85.40
2018-04-26T03:40:25.789Z,82.50
2018-04-26T03:41:25.806Z,84.10
2018-04-26T03:42:25.795Z,90.20
2018-04-26T03:43:25.836Z,87.50
2018-04-26T03:44:25.722Z,83.70
2018-04-26T03:45:25.746Z,79.30
2018-04-26T03:46:25.880Z,85.40
2018-04-26T03:47:25.927Z,85.30
2018-04-26T03:48:25.785Z,88.10
2018-04-26T03:49:25.799Z,92.10
2018-04-26T03:50:25.939Z,82.20
2018-04-26T03:51:25.828Z,88.20
2018-04-26T03:52:25.957Z,89.00
2018-04-26T03:53:25.984Z,83.90
2018-04-26T03:54:26.006Z,88.80
2018-04-26T03:55:25.901Z,87.30
2018-04-26T03:56:25.907Z,90.30
2018-04-26T03:57:25.912Z,79.80
2018-04-26T03:58:26.161Z,80.00
2018-04-26T03:59:26.073Z,78.80
2018-04-26T04:00:25.970Z,78.70
2018-04-26T04:01:26.105Z,78.40
2018-04-26T04:02:26.119Z,82.30
2018-04-26T04:03:26.109Z,86.60
2018-04-26T04:04:26.030Z,90.30
2018-04-26T04:05:26.045Z,87.60
2018-04-26T04:06:26.054Z,82.00
2018-04-26T04:07:26.074Z,89.20
2018-04-26T04:08:26.359Z,90.90
2018-04-26T04:09:26.222Z,94.70
2018-04-26T04:10:26.238Z,92.10
2018-04-26T04:11:26.124Z,98.70
2018-04-26T04:12:26.148Z,95.50
2018-04-26T04:13:26.434Z,97.10
2018-04-26T04:14:26.169Z,90.60
2018-04-26T04:15:26.197Z,91.10
2018-04-26T04:16:26.328Z,91.70
2018-04-26T04:17:26.340Z,94.60
2018-04-26T04:18:26.459Z,102.10
2018-04-26T04:19:26.369Z,98.40
2018-04-26T04:20:26.259Z,101.00
2018-04-26T04:21:26.275Z,107.10
2018-04-26T04:22:26.298Z,99.70
2018-04-26T04:23:26.402Z,98.50
2018-04-26T04:24:26.446Z,100.40
2018-04-26T04:25:26.460Z,102.10
2018-04-26T04:26:26.348Z,100.30
2018-04-26T04:27:26.376Z,101.10
2018-04-26T04:28:26.604Z,101.70
2018-04-26T04:29:26.520Z,101.80
2018-04-26T04:30:26.533Z,104.10
2018-04-26T04:31:26.418Z,100.40
2018-04-26T04:32:26.563Z,106.50
2018-04-26T04:33:26.679Z,112.20
2018-04-26T04:34:26.594Z,108.50
2018-04-26T04:35:26.495Z,109.70
2018-04-26T04:36:26.622Z,109.50
2018-04-26T04:37:26.518Z,113.00
2018-04-26T04:38:26.652Z,113.90
2018-04-26T04:39:26.768Z,111.70
2018-04-26T04:40:26.681Z,116.70
2018-04-26T04:41:26.695Z,116.30
2018-04-26T04:42:26.714Z,111.00
2018-04-26T04:43:26.725Z,117.60
2018-04-26T04:44:26.840Z,112.50
2018-04-26T04:45:26.755Z,118.20
2018-04-26T04:46:26.650Z,120.70
2018-04-26T04:47:26.784Z,108.80
2018-04-26T04:48:26.680Z,104.90
2018-04-26T04:49:26.814Z,111.80
2018-04-26T04:50:26.929Z,113.90
2018-04-26T04:51:26.715Z,110.20
2018-04-26T04:52:26.738Z,121.10
2018-04-26T04:53:26.872Z,112.90
2018-04-26T04:54:26.758Z,109.50
2018-04-26T04:55:26.774Z,110.10
2018-04-26T04:56:27.018Z,101.60
2018-04-26T04:57:26.934Z,100.40
2018-04-26T04:58:26.946Z,107.70
2018-04-26T04:59:26.963Z,98.60
2018-04-26T05:00:26.975Z,83.70
2018-04-26T05:01:27.091Z,88.30
2018-04-26T05:02:26.879Z,85.40
2018-04-26T05:03:26.902Z,87.40
2018-04-26T05:04:26.907Z,86.70
2018-04-26T05:05:26.921Z,82.90
2018-04-26T05:06:27.051Z,87.00
2018-04-26T05:07:27.126Z,86.20
2018-04-26T05:08:26.975Z,83.60
2018-04-26T05:09:27.106Z,84.30
2018-04-26T05:10:27.000Z,87.70
2018-04-26T05:11:27.239Z,92.30
2018-04-26T05:12:27.153Z,90.60
2018-04-26T05:13:27.165Z,90.10
2018-04-26T05:14:27.184Z,90.10
2018-04-26T05:15:27.066Z,83.90
2018-04-26T05:16:27.311Z,84.60
2018-04-26T05:17:27.110Z,76.00
2018-04-26T05:18:27.240Z,77.80
2018-04-26T05:19:27.136Z,72.80
2018-04-26T05:20:27.142Z,74.60
2018-04-26T05:21:27.389Z,70.30
2018-04-26T05:22:27.172Z,69.30
2018-04-26T05:23:27.196Z,73.60
2018-04-26T05:24:27.328Z,66.90
2018-04-26T05:25:27.345Z,69.00
2018-04-26T05:26:27.344Z,70.00
2018-04-26T05:27:27.244Z,67.40
2018-04-26T05:28:27.388Z,65.00
2018-04-26T05:29:27.272Z,69.70
2018-04-26T05:30:27.295Z,67.60
2018-04-26T05:31:27.416Z,67.10
2018-04-26T05:32:27.447Z,65.00
2018-04-26T05:33:27.459Z,63.80
2018-04-26T05:34:27.356Z,64.80
2018-04-26T05:35:27.489Z,64.20
2018-04-26T05:36:27.490Z,66.80
2018-04-26T05:37:27.390Z,61.50
2018-04-26T05:38:27.411Z,64.00
2018-04-26T05:39:27.546Z,62.40
2018-04-26T05:40:27.576Z,63.40
2018-04-26T05:41:27.547Z,63.20
2018-04-26T05:42:27.472Z,64.20
2018-04-26T05:43:27.604Z,64.50
2018-04-26T05:44:27.621Z,63.50
2018-04-26T05:45:27.509Z,63.00
2018-04-26T05:46:27.749Z,63.40
2018-04-26T05:47:27.688Z,62.80
2018-04-26T05:48:27.552Z,63.50
2018-04-26T05:49:27.698Z,63.20
2018-04-26T05:50:27.707Z,63.10
2018-04-26T05:51:27.821Z,63.60
2018-04-26T05:52:27.624Z,64.10
2018-04-26T05:53:27.634Z,66.10
2018-04-26T05:54:27.653Z,72.00
2018-04-26T05:55:27.783Z,71.40
2018-04-26T05:56:27.668Z,66.30
2018-04-26T05:57:27.792Z,75.30
2018-04-26T05:58:27.711Z,78.20
2018-04-26T05:59:27.839Z,78.30
2018-04-26T06:00:27.725Z,77.20
2018-04-26T06:01:27.868Z,83.00
2018-04-26T06:02:27.765Z,89.10
2018-04-26T06:03:27.918Z,82.40
2018-04-26T06:04:27.912Z,84.80
2018-04-26T06:05:27.813Z,80.10
2018-04-26T06:06:27.818Z,84.40
2018-04-26T06:07:27.865Z,87.60
2018-04-26T06:08:28.072Z,91.70
2018-04-26T06:09:27.865Z,94.90
2018-04-26T06:10:27.872Z,97.40
2018-04-26T06:11:27.887Z,92.50
2018-04-26T06:12:27.902Z,97.10
2018-04-26T06:13:28.015Z,101.50
2018-04-26T06:14:28.057Z,116.00
2018-04-26T06:15:28.072Z,119.30
2018-04-26T06:16:27.972Z,129.30
2018-04-26T06:17:28.099Z,120.30
2018-04-26T06:18:27.995Z,117.10
2018-04-26T06:19:28.115Z,126.40
2018-04-26T06:20:28.020Z,127.90
2018-04-26T06:21:28.031Z,141.30
2018-04-26T06:22:28.053Z,152.90
2018-04-26T06:23:28.062Z,154.60
2018-04-26T06:24:28.168Z,137.60
2018-04-26T06:25:28.100Z,164.90
2018-04-26T06:26:28.230Z,175.10
2018-04-26T06:27:28.116Z,165.30
2018-04-26T06:28:28.133Z,168.60
2018-04-26T06:29:28.261Z,178.20
2018-04-26T06:30:28.160Z,190.70
2018-04-26T06:31:28.189Z,203.70
2018-04-26T06:32:28.318Z,210.40
2018-04-26T06:33:28.332Z,209.80
2018-04-26T06:34:28.331Z,205.20
2018-04-26T06:35:28.358Z,229.90
2018-04-26T06:36:28.373Z,240.40
2018-04-26T06:37:28.262Z,245.60
2018-04-26T06:38:28.277Z,252.20
2018-04-26T06:39:28.415Z,242.10
2018-04-26T06:40:28.405Z,262.20
2018-04-26T06:41:28.447Z,229.80
2018-04-26T06:42:28.343Z,257.50
2018-04-26T06:43:28.475Z,239.30
2018-04-26T06:44:28.485Z,243.70
2018-04-26T06:45:28.651Z,259.70
2018-04-26T06:46:28.392Z,245.80
2018-04-26T06:47:28.409Z,279.40
2018-04-26T06:48:28.543Z,271.00
2018-04-26T06:49:28.430Z,265.60
2018-04-26T06:50:28.724Z,272.10
2018-04-26T06:51:28.464Z,288.60
2018-04-26T06:52:28.604Z,283.40
2018-04-26T06:53:28.519Z,274.00
2018-04-26T06:54:28.630Z,299.50
2018-04-26T06:55:28.670Z,273.80
2018-04-26T06:56:28.661Z,266.80
2018-04-26T06:57:28.560Z,246.20
2018-04-26T06:58:28.689Z,295.80
2018-04-26T06:59:28.587Z,292.70
2018-04-26T07:00:28.784Z,275.70
2018-04-26T07:01:28.733Z,299.20
2018-04-26T07:02:28.626Z,302.20
2018-04-26T07:03:28.634Z,311.60
2018-04-26T07:04:28.772Z,281.60
2018-04-26T07:05:28.667Z,293.30
2018-04-26T07:06:28.778Z,316.30
2018-04-26T07:07:28.816Z,293.20
2018-04-26T07:08:28.702Z,309.50
2018-04-26T07:09:28.716Z,296.60
2018-04-26T07:10:28.858Z,323.70
2018-04-26T07:11:28.760Z,325.50
2018-04-26T07:12:28.985Z,328.00
2018-04-26T07:13:28.773Z,314.90
2018-04-26T07:14:28.797Z,306.40
2018-04-26T07:15:28.823Z,308.50
2018-04-26T07:16:28.815Z,321.50
2018-04-26T07:17:28.981Z,292.80
2018-04-26T07:18:28.852Z,292.60
2018-04-26T07:19:28.860Z,296.90
2018-04-26T07:20:28.881Z,287.00
2018-04-26T07:21:28.902Z,290.10
2018-04-26T07:22:29.184Z,279.50
2018-04-26T07:23:29.043Z,284.60
2018-04-26T07:24:28.929Z,283.00
2018-04-26T07:25:28.950Z,265.10
2018-04-26T07:26:28.972Z,274.90
2018-04-26T07:27:29.088Z,251.10
2018-04-26T07:28:29.115Z,245.00
2018-04-26T07:29:29.131Z,251.90
2018-04-26T07:30:29.031Z,284.20
2018-04-26T07:31:29.165Z,252.10
2018-04-26T07:32:29.322Z,264.40
2018-04-26T07:33:29.067Z,271.90
2018-04-26T07:34:29.075Z,264.20
2018-04-26T07:35:29.215Z,273.40
2018-04-26T07:36:29.229Z,272.20
2018-04-26T07:37:29.270Z,248.90
2018-04-26T07:38:29.139Z,244.90
2018-04-26T07:39:29.144Z,257.90
2018-04-26T07:40:29.163Z,238.70
2018-04-26T07:41:29.307Z,238.60
2018-04-26T07:42:29.304Z,191.30
2018-04-26T07:43:29.329Z,204.30
2018-04-26T07:44:29.347Z,220.30
2018-04-26T07:45:29.363Z,233.60
2018-04-26T07:46:29.258Z,197.50
2018-04-26T07:47:29.410Z,187.60
2018-04-26T07:48:29.282Z,204.40
2018-04-26T07:49:29.417Z,201.60
2018-04-26T07:50:29.317Z,201.00
2018-04-26T07:51:29.330Z,200.40
2018-04-26T07:52:29.487Z,180.90
2018-04-26T07:53:29.481Z,199.00
2018-04-26T07:54:29.375Z,203.20
2018-04-26T07:55:29.383Z,244.60
2018-04-26T07:56:29.516Z,208.80
2018-04-26T07:57:29.413Z,246.80
2018-04-26T07:58:29.568Z,165.70
2018-04-26T07:59:29.559Z,163.50
2018-04-26T08:00:29.446Z,174.70
2018-04-26T08:01:29.501Z,154.00
2018-04-26T08:02:29.476Z,162.40
2018-04-26T08:03:29.499Z,172.70
2018-04-26T08:04:29.657Z,167.00
2018-04-26T08:05:29.524Z,166.70
2018-04-26T08:06:29.660Z,169.10
2018-04-26T08:07:29.561Z,168.70
2018-04-26T08:08:29.557Z,169.50
2018-04-26T08:09:29.740Z,198.20
2018-04-26T08:10:29.719Z,181.20
2018-04-26T08:11:29.729Z,183.90
2018-04-26T08:12:29.630Z,190.40
2018-04-26T08:13:29.636Z,174.90
2018-04-26T08:14:29.806Z,158.60
2018-04-26T08:15:29.662Z,188.00
2018-04-26T08:16:29.683Z,172.70
2018-04-26T08:17:29.689Z,169.10
2018-04-26T08:18:29.830Z,185.50
2018-04-26T08:19:29.716Z,180.80
2018-04-26T08:20:30.012Z,188.40
2018-04-26T08:21:29.753Z,203.50
2018-04-26T08:22:29.781Z,197.80
2018-04-26T08:23:29.789Z,206.70
2018-04-26T08:24:29.806Z,186.50
2018-04-26T08:25:29.957Z,178.00
2018-04-26T08:26:29.821Z,169.90
2018-04-26T08:27:29.833Z,162.10
2018-04-26T08:28:29.854Z,166.90
2018-04-26T08:29:29.988Z,153.70
2018-04-26T08:30:29.913Z,157.80
2018-04-26T08:31:30.116Z,157.40
2018-04-26T08:32:30.032Z,162.10
2018-04-26T08:33:29.928Z,169.10
2018-04-26T08:34:29.932Z,201.80
2018-04-26T08:35:30.074Z,179.30
2018-04-26T08:36:30.061Z,172.90
2018-04-26T08:37:29.992Z,186.20
2018-04-26T08:38:29.992Z,160.40
2018-04-26T08:39:30.018Z,196.70
2018-04-26T08:40:30.028Z,149.30
2018-04-26T08:41:30.317Z,162.40
2018-04-26T08:42:30.046Z,160.00
2018-04-26T08:43:30.058Z,154.60
2018-04-26T08:44:30.088Z,160.80
2018-04-26T08:45:30.123Z,162.10
2018-04-26T08:46:30.382Z,167.70
2018-04-26T08:47:30.117Z,157.80
2018-04-26T08:48:30.142Z,169.40
2018-04-26T08:49:30.274Z,157.80
2018-04-26T08:50:30.160Z,161.00
2018-04-26T08:51:30.332Z,148.90
2018-04-26T08:52:30.315Z,145.60
2018-04-26T08:53:30.329Z,157.20
2018-04-26T08:54:30.231Z,145.10
2018-04-26T08:55:30.257Z,152.50
2018-04-26T08:56:30.346Z,154.60
2018-04-26T08:57:30.257Z,154.20
2018-04-26T08:58:30.287Z,173.90
2018-04-26T08:59:30.415Z,155.10
2018-04-26T09:00:30.311Z,175.20
2018-04-26T09:01:30.546Z,177.40
2018-04-26T09:02:30.336Z,187.20
2018-04-26T09:03:30.346Z,181.90
2018-04-26T09:04:30.365Z,157.20
2018-04-26T09:05:30.372Z,182.00
2018-04-26T09:06:30.664Z,173.50
2018-04-26T09:07:30.526Z,158.60
2018-04-26T09:08:30.540Z,157.80
2018-04-26T09:09:30.444Z,153.10
2018-04-26T09:10:30.575Z,165.20
2018-04-26T09:11:30.569Z,166.20
2018-04-26T09:12:30.469Z,162.70
2018-04-26T09:13:30.614Z,156.20
2018-04-26T09:14:30.500Z,143.50
2018-04-26T09:15:30.643Z,155.40
2018-04-26T09:16:30.537Z,156.00
2018-04-26T09:17:30.820Z,144.40
2018-04-26T09:18:30.557Z,148.40
2018-04-26T09:19:30.578Z,132.70
2018-04-26T09:20:30.587Z,148.10
2018-04-26T09:21:30.724Z,147.30
2018-04-26T09:22:30.891Z,149.80
2018-04-26T09:23:30.640Z,154.70
2018-04-26T09:24:30.770Z,134.00
2018-04-26T09:25:30.785Z,151.20
2018-04-26T09:26:30.676Z,147.90
2018-04-26T09:27:30.834Z,149.00
2018-04-26T09:28:30.828Z,172.50
2018-04-26T09:29:30.839Z,159.60
2018-04-26T09:30:30.857Z,151.90
2018-04-26T09:31:30.747Z,159.70
2018-04-26T09:32:31.030Z,176.40
2018-04-26T09:33:30.898Z,158.00
2018-04-26T09:34:30.908Z,148.40
2018-04-26T09:35:30.810Z,149.00
2018-04-26T09:36:30.821Z,112.60
2018-04-26T09:37:31.050Z,150.30
2018-04-26T09:38:30.852Z,159.30
2018-04-26T09:39:30.851Z,123.30
2018-04-26T09:40:30.992Z,154.30
2018-04-26T09:41:30.887Z,144.00
2018-04-26T09:42:30.995Z,145.90
2018-04-26T09:43:31.036Z,173.30
2018-04-26T09:44:30.926Z,155.00
2018-04-26T09:45:31.065Z,167.30
2018-04-26T09:46:30.967Z,155.20
2018-04-26T09:47:31.242Z,142.30
2018-04-26T09:48:31.111Z,152.00
2018-04-26T09:49:31.008Z,146.30
2018-04-26T09:50:31.106Z,162.40
2018-04-26T09:51:31.149Z,154.10
2018-04-26T09:52:31.150Z,157.00
2018-04-26T09:53:31.053Z,160.30
2018-04-26T09:54:31.194Z,149.30
2018-04-26T09:55:31.210Z,154.10
2018-04-26T09:56:31.103Z,147.40
2018-04-26T09:57:31.272Z,143.60
2018-04-26T09:58:31.269Z,138.30
2018-04-26T09:59:31.264Z,140.50
2018-04-26T10:00:31.155Z,138.50
2018-04-26T10:01:31.294Z,117.90
2018-04-26T10:02:31.469Z,107.10
2018-04-26T10:03:31.203Z,115.70
2018-04-26T10:04:31.337Z,105.00
2018-04-26T10:05:31.234Z,106.50
2018-04-26T10:06:31.372Z,101.40
2018-04-26T10:07:31.420Z,98.80
2018-04-26T10:08:31.268Z,94.80
2018-04-26T10:09:31.294Z,99.00
2018-04-26T10:10:31.315Z,93.50
2018-04-26T10:11:31.441Z,86.40
2018-04-26T10:12:31.456Z,87.40
2018-04-26T10:13:31.352Z,85.70
2018-04-26T10:14:31.358Z,78.90
2018-04-26T10:15:31.381Z,74.00
2018-04-26T10:16:31.385Z,71.30
2018-04-26T10:17:31.629Z,76.20
2018-04-26T10:18:31.419Z,69.30
2018-04-26T10:19:31.441Z,66.40
2018-04-26T10:20:31.448Z,71.70
2018-04-26T10:21:31.465Z,75.20
2018-04-26T10:22:31.706Z,72.60
2018-04-26T10:23:31.500Z,73.50
2018-04-26T10:24:31.511Z,69.00
2018-04-26T10:25:31.651Z,78.00
2018-04-26T10:26:31.667Z,77.90
2018-04-26T10:27:31.651Z,78.90
2018-04-26T10:28:31.699Z,77.50
2018-04-26T10:29:31.612Z,77.90
2018-04-26T10:30:31.731Z,81.60
2018-04-26T10:31:31.629Z,68.50
2018-04-26T10:32:31.783Z,62.70
2018-04-26T10:33:31.677Z,73.40
2018-04-26T10:34:31.791Z,72.20
2018-04-26T10:35:31.682Z,66.50
2018-04-26T10:36:31.703Z,63.90
2018-04-26T10:37:31.823Z,62.30
2018-04-26T10:38:31.854Z,61.60
2018-04-26T10:39:31.755Z,59.10
2018-04-26T10:40:31.764Z,60.70
2018-04-26T10:41:31.789Z,59.30
2018-04-26T10:42:31.900Z,57.30
2018-04-26T10:43:31.936Z,57.90
2018-04-26T10:44:31.832Z,68.90
2018-04-26T10:45:31.849Z,59.60
2018-04-26T10:46:31.985Z,60.30
2018-04-26T10:47:31.974Z,67.30
2018-04-26T10:48:31.898Z,62.50
2018-04-26T10:49:31.908Z,70.30
2018-04-26T10:50:31.924Z,72.20
2018-04-26T10:51:31.946Z,74.30
2018-04-26T10:52:32.186Z,67.40
2018-04-26T10:53:31.973Z,62.70
2018-04-26T10:54:32.115Z,66.40
2018-04-26T10:55:32.007Z,68.30
2018-04-26T10:56:32.037Z,70.30
2018-04-26T10:57:32.192Z,62.50
2018-04-26T10:58:32.186Z,65.10
2018-04-26T10:59:32.080Z,67.20
2018-04-26T11:00:32.085Z,72.00
2018-04-26T11:01:32.122Z,71.10
2018-04-26T11:02:32.401Z,63.10
2018-04-26T11:03:32.141Z,67.70
2018-04-26T11:04:32.170Z,67.20
2018-04-26T11:05:32.193Z,63.70
2018-04-26T11:06:32.320Z,66.30
2018-04-26T11:07:32.371Z,75.20
2018-04-26T11:08:32.229Z,66.70
2018-04-26T11:09:32.241Z,71.10
2018-04-26T11:10:32.266Z,68.40
2018-04-26T11:11:32.290Z,74.80
2018-04-26T11:12:32.402Z,65.60
2018-04-26T11:13:32.311Z,70.60
2018-04-26T11:14:32.334Z,70.90
2018-04-26T11:15:32.451Z,69.00
2018-04-26T11:16:32.369Z,64.00
2018-04-26T11:17:32.379Z,64.40
2018-04-26T11:18:32.502Z,65.80
2018-04-26T11:19:32.541Z,62.30
2018-04-26T11:20:32.561Z,61.40
2018-04-26T11:21:32.578Z,67.40
2018-04-26T11:22:32.479Z,66.40
2018-04-26T11:23:32.808Z,60.70
2018-04-26T11:24:32.514Z,61.80
2018-04-26T11:25:32.644Z,65.80
2018-04-26T11:26:32.691Z,66.30
2018-04-26T11:27:32.559Z,57.90
2018-04-26T11:28:32.800Z,60.10
2018-04-26T11:29:32.589Z,60.80
2018-04-26T11:30:32.618Z,64.10
2018-04-26T11:31:32.625Z,55.80
2018-04-26T11:32:32.648Z,59.60
2018-04-26T11:33:32.823Z,59.40
2018-04-26T11:34:32.752Z,63.90
2018-04-26T11:35:32.712Z,59.30
2018-04-26T11:36:32.715Z,60.10
2018-04-26T11:37:32.738Z,63.00
2018-04-26T11:38:32.901Z,62.30
2018-04-26T11:39:32.890Z,58.10
2018-04-26T11:40:32.911Z,60.90
2018-04-26T11:41:32.928Z,66.10
2018-04-26T11:42:32.948Z,64.00
2018-04-26T11:43:32.947Z,58.90
2018-04-26T11:44:32.856Z,60.60
2018-04-26T11:45:32.881Z,57.10
2018-04-26T11:46:32.893Z,56.00
2018-04-26T11:47:32.917Z,55.80
2018-04-26T11:48:33.157Z,55.40
2018-04-26T11:49:33.073Z,60.90
2018-04-26T11:50:33.091Z,60.00
2018-04-26T11:51:32.993Z,59.90
2018-04-26T11:52:33.059Z,55.40
2018-04-26T11:53:33.246Z,57.10
2018-04-26T11:54:33.165Z,55.70
2018-04-26T11:55:33.062Z,57.90
2018-04-26T11:56:33.075Z,58.50
2018-04-26T11:57:33.094Z,61.60
2018-04-26T11:58:33.272Z,56.80
2018-04-26T11:59:33.134Z,61.10
2018-04-26T12:00:33.152Z,60.10
2018-04-26T12:01:33.183Z,60.00
2018-04-26T12:02:33.264Z,61.10
2018-04-26T12:03:33.318Z,57.10
2018-04-26T12:04:33.228Z,57.50
2018-04-26T12:05:33.247Z,55.50
2018-04-26T12:06:33.395Z,52.40
2018-04-26T12:07:33.285Z,54.20
2018-04-26T12:08:33.456Z,53.70
2018-04-26T12:09:33.332Z,55.80
2018-04-26T12:10:33.357Z,55.30
2018-04-26T12:11:33.489Z,57.10
2018-04-26T12:12:33.511Z,55.10
2018-04-26T12:13:33.682Z,52.30
2018-04-26T12:14:33.550Z,50.20
2018-04-26T12:15:33.455Z,58.70
2018-04-26T12:16:33.475Z,59.20
2018-04-26T12:17:33.607Z,56.70
2018-04-26T12:18:33.793Z,56.10
2018-04-26T12:19:33.526Z,54.40
2018-04-26T12:20:33.667Z,60.50
2018-04-26T12:21:33.570Z,56.20
2018-04-26T12:22:33.596Z,56.80
2018-04-26T12:23:33.704Z,57.90
2018-04-26T12:24:33.749Z,56.50
2018-04-26T12:25:33.648Z,54.10
2018-04-26T12:26:33.792Z,57.60
2018-04-26T12:27:33.815Z,59.20
2018-04-26T12:28:33.932Z,57.10
2018-04-26T12:29:33.855Z,63.10
2018-04-26T12:30:33.876Z,58.00
2018-04-26T12:31:33.893Z,60.10
2018-04-26T12:32:33.918Z,66.80
2018-04-26T12:33:34.087Z,64.70
2018-04-26T12:34:33.854Z,64.20
2018-04-26T12:35:33.847Z,67.90
2018-04-26T12:36:33.999Z,65.70
2018-04-26T12:37:33.892Z,66.10
2018-04-26T12:38:34.023Z,72.70
2018-04-26T12:39:33.931Z,62.80
2018-04-26T12:40:33.975Z,66.70
2018-04-26T12:41:33.979Z,64.40
2018-04-26T12:42:33.994Z,68.80
2018-04-26T12:43:34.246Z,67.20
2018-04-26T12:44:34.034Z,67.20